Time;durP1;ratioP1;P1;durP2;ratioP2;P2;SDS_P1;SDS_P2;PMS_P1;PMS_P2;Temp;Humidity;BMP_temperature;BMP_pressure;BME280_temperature;BME280_humidity;BME280_pressure;Samples;Min_cycle;Max_cycle;Signal;HPM_P1;HPM_P2
2021/09/07 00:04:54;;;;;;;15.50;9.60;;;;;;;11.98;55.44;101057.94;111159;1224;107395;-78
2021/09/07 00:13:37;;;;;;;16.10;10.40;;;;;;;11.88;55.69;101056.30;110466;1230;94146;-77
2021/09/07 00:17:43;;;;;;;17.80;10.70;;;;;;;11.84;55.88;101054.29;110150;1232;94002;-77
2021/09/07 00:29:20;;;;;;;17.20;11.10;;;;;;;11.77;56.22;101040.67;111371;1216;636571;-77
2021/09/07 00:33:30;;;;;;;16.10;11.30;;;;;;;11.70;56.48;101035.98;112102;1205;137133;-76
2021/09/07 00:41:49;;;;;;;21.70;11.40;;;;;;;11.56;57.05;101032.14;111943;1212;108163;-76
2021/09/07 00:45:58;;;;;;;19.80;11.60;;;;;;;11.51;57.44;101029.30;111536;1215;137386;-76
2021/09/07 00:50:12;;;;;;;17.20;11.80;;;;;;;11.45;57.78;101025.57;111637;1215;108455;-76
2021/09/07 00:58:52;;;;;;;20.30;12.40;;;;;;;11.33;58.40;101020.31;110336;1230;137491;-76
2021/09/07 01:06:50;;;;;;;;;;;;;;;;;;;;;
2021/09/07 01:15:16;;;;;;;21.70;14.20;;;;;;;11.18;59.64;101005.67;111465;1221;636059;-77
2021/09/07 01:19:25;;;;;;;21.40;13.70;;;;;;;11.13;59.79;101005.94;112271;1211;94073;-76
2021/09/07 01:23:34;;;;;;;19.60;12.90;;;;;;;11.08;60.14;101006.23;112013;1213;136585;-77
2021/09/07 01:27:43;;;;;;;23.30;14.20;;;;;;;11.05;60.56;100995.36;111866;1212;108263;-76
2021/09/07 01:31:51;;;;;;;23.60;14.20;;;;;;;11.02;60.75;100998.55;111424;1224;105561;-77
2021/09/07 01:36:26;;;;;;;23.70;14.10;;;;;;;10.98;60.69;100993.77;111105;1222;137186;-77
2021/09/07 01:40:32;;;;;;;24.80;13.90;;;;;;;10.94;61.12;100993.83;110578;1223;94064;-76
2021/09/07 01:52:10;;;;;;;21.40;12.80;;;;;;;10.88;61.28;100987.70;111448;1220;636611;-76
2021/09/07 01:56:18;;;;;;;22.70;14.20;;;;;;;10.85;61.34;100986.89;112156;1211;136971;-76
2021/09/07 02:00:27;;;;;;;21.30;13.60;;;;;;;10.84;61.25;100989.52;112040;1211;137075;-76
2021/09/07 02:04:36;;;;;;;21.50;12.80;;;;;;;10.81;61.35;100992.39;112244;1206;107087;-76
2021/09/07 02:08:55;;;;;;;;;;;;;;;;;;;;;
2021/09/07 02:12:16;;;;;;;21.00;12.20;;;;;;;10.75;61.65;100983.98;111231;1222;636292;-76
2021/09/07 02:20:35;;;;;;;19.40;12.40;;;;;;;10.66;61.82;100975.99;112008;1206;136737;-76
2021/09/07 02:24:43;;;;;;;18.40;12.00;;;;;;;10.62;61.99;100976.95;111982;1209;137333;-77
2021/09/07 02:28:52;;;;;;;21.00;13.40;;;;;;;10.60;62.24;100979.08;111914;1218;107233;-78
2021/09/07 02:37:32;;;;;;;20.10;12.80;;;;;;;10.55;62.12;100974.83;110703;1220;137555;-76
2021/09/07 02:49:51;;;;;;;20.10;12.10;;;;;;;10.51;62.23;100972.98;109635;1235;137210;-77
2021/09/07 02:58:05;;;;;;;16.80;11.30;;;;;;;10.54;61.95;100966.14;112335;1210;93882;-77
2021/09/07 03:02:14;;;;;;;19.60;11.30;;;;;;;10.54;61.93;100965.27;112032;1210;137032;-76
2021/09/07 03:10:33;;;;;;;17.50;11.60;;;;;;;10.56;61.95;100961.59;112017;1212;106156;-78
2021/09/07 03:15:08;;;;;;;17.30;11.80;;;;;;;10.58;61.95;100960.49;111375;1219;137282;-78
2021/09/07 03:23:20;;;;;;;19.00;10.90;;;;;;;10.56;61.85;100950.97;110433;1230;95195;-76
2021/09/07 03:31:32;;;;;;;16.10;10.60;;;;;;;10.57;61.85;100952.69;109796;1228;106348;-77
2021/09/07 03:35:37;;;;;;;16.70;11.70;;;;;;;10.55;62.10;100950.30;109613;1232;137113;-76
2021/09/07 03:40:09;;;;;;;16.80;11.40;;;;;;;10.53;61.89;100953.66;111438;1220;636385;-76
2021/09/07 03:56:25;;;;;;;17.70;10.50;;;;;;;10.43;62.39;100956.85;111212;1224;105670;-79
2021/09/07 04:00:31;;;;;;;16.90;10.50;;;;;;;10.43;62.39;100953.19;111228;1217;108710;-76
2021/09/07 04:05:06;;;;;;;22.30;11.30;;;;;;;10.43;62.45;100952.84;110687;1219;138054;-76
2021/09/07 04:08:48;;;;;;;16.60;10.70;;;;;;;10.39;62.49;100951.31;110304;1231;94050;-76
2021/09/07 04:13:19;;;;;;;19.00;11.70;;;;;;;10.35;62.70;100952.13;109961;1226;105747;-77
2021/09/07 04:16:59;;;;;;;;;;;;;;;;;;;;;
2021/09/07 04:21:08;;;;;;;17.20;11.30;;;;;;;10.32;62.85;100951.15;109750;1228;108287;-76
2021/09/07 04:24:14;;;;;;;17.60;10.50;;;;;;;10.32;62.86;100953.92;109749;1228;94976;-77
2021/09/07 04:28:01;;;;;;;16.40;10.70;;;;;;;10.34;63.05;100955.09;109970;1232;94886;-76
2021/09/07 04:36:39;;;;;;;18.30;10.50;;;;;;;10.82;62.74;100954.77;109848;1227;137333;-77
2021/09/07 04:40:44;;;;;;;20.60;10.60;;;;;;;11.09;62.27;100958.18;109551;1231;109836;-76
2021/09/07 04:48:56;;;;;;;14.90;10.00;;;;;;;12.11;60.74;100966.45;109525;1237;137516;-77
2021/09/07 04:53:02;;;;;;;18.60;10.30;;;;;;;13.00;59.69;100960.56;111458;1220;638242;-75
2021/09/07 05:01:19;;;;;;;16.30;10.10;;;;;;;13.99;56.82;100967.30;112005;1214;136973;-76
2021/09/07 05:05:28;;;;;;;19.10;11.10;;;;;;;14.40;55.98;100956.56;111944;1218;107168;-76
2021/09/07 05:14:24;;;;;;;16.50;10.20;;;;;;;17.31;52.07;100957.89;110635;1220;137302;-76
2021/09/07 05:18:30;;;;;;;14.10;9.90;;;;;;;17.65;50.14;100965.33;110238;1225;93953;-76
2021/09/07 05:22:35;;;;;;;12.40;9.20;;;;;;;18.35;49.00;100960.89;109958;1235;94036;-75
2021/09/07 05:26:27;;;;;;;;;;;;;;;;;;;;;
2021/09/07 05:30:12;;;;;;;;;;;;;;;;;;;;;
2021/09/07 05:34:33;;;;;;;;;;;;;;;;;;;;;
2021/09/07 05:38:32;;;;;;;;;;;;;;;;;;;;;
2021/09/07 05:42:43;;;;;;;13.30;8.40;;;;;;;24.44;38.09;100945.89;112257;1205;93988;-77
2021/09/07 05:45:58;;;;;;;14.00;8.00;;;;;;;24.13;37.14;100946.50;112257;1205;108232;-75
2021/09/07 05:49:27;;;;;;;18.60;8.90;;;;;;;24.21;36.47;100953.39;112261;1212;106226;-77
2021/09/07 05:53:08;;;;;;;;;;;;;;;;;;;;;
2021/09/07 05:56:47;;;;;;;;;;;;;;;;;;;;;
2021/09/07 06:00:57;;;;;;;13.30;8.00;;;;;;;22.03;36.65;100966.66;112234;1209;94015;-76
2021/09/07 06:05:00;;;;;;;;;;;;;;;;;;;;;
2021/09/07 06:09:09;;;;;;;16.00;9.10;;;;;;;20.65;38.54;100974.95;111960;1215;136965;-77
2021/09/07 06:13:09;;;;;;;;;;;;;;;;;;;;;
2021/09/07 06:17:17;;;;;;;;;;;;;;;;;;;;;
2021/09/07 06:25:11;;;;;;;14.70;8.10;;;;;;;22.99;37.18;100982.40;112011;1212;109633;-76
2021/09/07 06:29:21;;;;;;;17.50;8.20;;;;;;;23.74;35.86;100977.75;111931;1212;137046;-76
2021/09/07 06:32:13;;;;;;;19.20;8.10;;;;;;;24.98;34.43;100973.34;111858;1221;108544;-77
2021/09/07 06:36:02;;;;;;;11.10;7.90;;;;;;;25.01;33.48;100973.84;111875;1216;94926;-76
2021/09/07 06:40:12;;;;;;;17.60;8.00;;;;;;;24.88;33.72;100971.90;111476;1220;136998;-77
2021/09/07 06:43:31;;;;;;;15.70;7.60;;;;;;;26.84;32.95;100970.92;111298;1217;109262;-76
2021/09/07 06:47:57;;;;;;;;;;;;;;;;;;;;;
2021/09/07 06:52:04;;;;;;;;;;;;;;;;;;;;;
2021/09/07 06:55:58;;;;;;;16.10;8.30;;;;;;;33.09;27.16;100956.27;111319;1221;635732;-76
2021/09/07 06:59:09;;;;;;;15.40;7.00;;;;;;;34.36;25.46;100959.36;112156;1209;136774;-76
2021/09/07 07:02:02;;;;;;;13.20;7.10;;;;;;;35.46;24.17;100955.64;112313;1209;93885;-76
2021/09/07 07:05:17;;;;;;;22.10;7.40;;;;;;;36.41;23.02;100957.28;112109;1209;136456;-75
2021/09/07 07:08:49;;;;;;;23.10;8.40;;;;;;;37.18;21.92;100953.10;112287;1202;106357;-76
2021/09/07 07:12:09;;;;;;;20.70;8.30;;;;;;;38.03;21.14;100949.53;112166;1213;99810;-77
2021/09/07 07:15:44;;;;;;;13.00;7.00;;;;;;;38.69;19.92;100947.60;112135;1213;94193;-76
2021/09/07 07:18:42;;;;;;;12.40;6.60;;;;;;;39.24;19.36;100945.92;112156;1207;94340;-76
2021/09/07 07:22:02;;;;;;;11.20;6.10;;;;;;;39.61;18.54;100941.21;112042;1206;137349;-75
2021/09/07 07:25:22;;;;;;;;;;;;;;;;;;;;;
2021/09/07 07:28:11;;;;;;;10.40;5.90;;;;;;;39.64;17.77;100943.29;112229;1200;137841;-76
2021/09/07 07:30:59;;;;;;;13.60;6.10;;;;;;;39.43;16.84;100951.00;112322;1199;95040;-75
2021/09/07 07:33:47;;;;;;;15.40;7.10;;;;;;;38.88;17.02;100952.92;112271;1199;137968;-76
2021/09/07 07:37:19;;;;;;;12.00;5.30;;;;;;;38.32;16.85;100957.44;112294;1202;102093;-76
2021/09/07 07:40:48;;;;;;;10.40;5.80;;;;;;;37.83;17.12;100956.13;112198;1202;137354;-76
2021/09/07 07:43:48;;;;;;;12.50;6.10;;;;;;;37.97;17.39;100960.26;112296;1203;100059;-76
2021/09/07 07:46:46;;;;;;;10.40;6.10;;;;;;;38.13;17.06;100966.06;112159;1200;136909;-76
2021/09/07 07:50:06;;;;;;;;;;;;;;;;;;;;;
2021/09/07 07:53:04;;;;;;;10.40;4.60;;;;;;;38.51;16.64;100968.20;112467;1205;137045;-76
2021/09/07 07:55:52;;;;;;;13.70;6.50;;;;;;;38.31;16.12;100966.36;112591;1205;98748;-76
2021/09/07 07:58:59;;;;;;;8.00;4.50;;;;;;;37.94;16.40;100968.15;112472;1205;136895;-76
2021/09/07 08:02:17;;;;;;;11.10;5.50;;;;;;;37.85;16.47;100973.76;112473;1205;94807;-76
2021/09/07 08:05:26;;;;;;;19.30;5.10;;;;;;;38.29;16.38;100978.98;112478;1205;136930;-76
2021/09/07 08:08:54;;;;;;;7.90;4.40;;;;;;;38.68;16.10;100979.34;112549;1205;99919;-76
2021/09/07 08:11:48;;;;;;;13.00;4.90;;;;;;;38.32;15.56;100981.58;112423;1205;136671;-76
2021/09/07 08:14:38;;;;;;;13.40;6.10;;;;;;;38.25;15.84;100987.65;112588;1198;99803;-76
2021/09/07 08:17:49;;;;;;;10.10;4.50;;;;;;;38.28;15.66;100993.34;112435;1205;136917;-77
2021/09/07 08:20:38;;;;;;;13.70;4.60;;;;;;;38.08;15.92;100992.67;112587;1199;94835;-77
2021/09/07 08:23:28;;;;;;;6.00;3.90;;;;;;;38.28;15.57;100996.64;112490;1205;136939;-77
2021/09/07 08:26:25;;;;;;;7.30;3.70;;;;;;;38.32;15.48;100992.33;112572;1205;98909;-77
2021/09/07 08:29:54;;;;;;;10.60;3.80;;;;;;;38.27;15.65;100994.09;112413;1200;136790;-77
2021/09/07 08:32:56;;;;;;;8.20;3.60;;;;;;;38.38;15.35;100995.83;112310;1202;95378;-77
2021/09/07 08:36:04;;;;;;;10.60;4.20;;;;;;;38.15;15.09;100992.63;112192;1202;136735;-77
2021/09/07 08:39:04;;;;;;;6.70;3.50;;;;;;;37.93;15.26;100987.23;112346;1202;100906;-77
2021/09/07 08:42:01;;;;;;;13.60;4.80;;;;;;;37.51;15.38;100989.26;112255;1202;136636;-77
2021/09/07 08:44:48;;;;;;;15.70;4.50;;;;;;;37.35;15.74;100984.64;112326;1201;98970;-76
2021/09/07 08:47:38;;;;;;;14.70;4.10;;;;;;;37.23;15.34;100983.08;112214;1202;137560;-76
2021/09/07 08:50:32;;;;;;;7.60;3.30;;;;;;;36.77;15.28;100987.55;112366;1202;94812;-76
2021/09/07 08:53:20;;;;;;;6.50;3.60;;;;;;;36.29;15.40;100990.77;112218;1202;137107;-74
2021/09/07 08:56:11;;;;;;;7.00;3.10;;;;;;;36.04;15.36;100991.02;112319;1209;98643;-76
2021/09/07 08:59:15;;;;;;;9.30;3.30;;;;;;;36.00;15.96;100990.61;112154;1208;136858;-76
2021/09/07 09:02:19;;;;;;;12.80;4.50;;;;;;;36.20;16.57;100986.24;112263;1200;94959;-76
2021/09/07 09:05:10;;;;;;;8.70;3.60;;;;;;;36.29;16.33;100981.88;112174;1209;136005;-75
2021/09/07 09:07:58;;;;;;;5.80;3.30;;;;;;;35.92;16.17;100981.58;112298;1203;98589;-76
2021/09/07 09:11:03;;;;;;;10.60;3.40;;;;;;;35.38;16.33;100977.08;112462;1205;136609;-76
2021/09/07 09:14:23;;;;;;;8.70;4.00;;;;;;;34.94;16.35;100979.20;112735;1206;98033;-77
2021/09/07 09:17:50;;;;;;;8.20;4.00;;;;;;;34.61;16.75;100980.52;112628;1205;136650;-77
2021/09/07 09:21:10;;;;;;;8.20;3.20;;;;;;;34.51;16.51;100983.19;112713;1198;95062;-77
2021/09/07 09:24:38;;;;;;;12.10;3.80;;;;;;;33.71;16.61;100983.77;112340;1201;136555;-78
2021/09/07 09:27:26;;;;;;;6.10;2.80;;;;;;;33.29;17.07;100982.11;112406;1203;98555;-77
2021/09/07 09:30:42;;;;;;;8.70;3.00;;;;;;;33.15;17.27;100983.54;112261;1208;136466;-76
2021/09/07 09:33:37;;;;;;;5.60;3.00;;;;;;;32.72;16.97;100988.71;112375;1208;94917;-76
2021/09/07 09:36:55;;;;;;;4.70;3.00;;;;;;;32.36;17.46;100985.38;112276;1203;137784;-76
2021/09/07 09:39:53;;;;;;;4.90;2.80;;;;;;;31.62;17.90;100981.41;112422;1206;109442;-76
2021/09/07 09:42:43;;;;;;;6.30;3.00;;;;;;;31.07;18.39;100983.95;112292;1209;136849;-76
2021/09/07 09:46:11;;;;;;;;;;;;;;;;;;;;;
2021/09/07 09:49:38;;;;;;;7.00;3.30;;;;;;;30.67;18.93;100979.86;112240;1209;137013;-76
2021/09/07 09:53:06;;;;;;;4.20;2.40;;;;;;;30.26;19.19;100980.77;112233;1203;137653;-76
2021/09/07 09:56:04;;;;;;;5.70;2.80;;;;;;;29.89;19.75;100980.59;112354;1203;109447;-76
2021/09/07 09:59:48;;;;;;;7.30;3.40;;;;;;;29.67;20.09;100980.70;112237;1203;137252;-76
2021/09/07 10:03:13;;;;;;;5.60;3.20;;;;;;;29.23;20.45;100975.96;112171;1209;106057;-76
2021/09/07 10:06:50;;;;;;;5.50;2.90;;;;;;;28.94;20.83;100977.82;112259;1204;137100;-76
2021/09/07 10:10:06;;;;;;;5.80;3.20;;;;;;;28.86;21.57;100970.30;112312;1202;94841;-77
2021/09/07 10:13:26;;;;;;;;;;;;;;;;;;;;;
2021/09/07 10:25:36;;;;;;;5.90;3.20;;;;;;;28.65;22.61;100968.45;112274;1208;136926;-75
2021/09/07 10:29:01;;;;;;;5.40;3.10;;;;;;;28.89;22.85;100965.55;112107;1215;95075;-77
2021/09/07 10:32:11;;;;;;;4.40;3.30;;;;;;;28.94;22.53;100970.98;112119;1208;109546;-76
2021/09/07 10:35:48;;;;;;;6.40;3.50;;;;;;;28.65;22.89;100972.69;112119;1208;106223;-76
2021/09/07 10:39:01;;;;;;;5.50;3.40;;;;;;;28.43;22.89;100978.45;112100;1207;108550;-76
2021/09/07 10:43:00;;;;;;;5.90;3.20;;;;;;;28.45;23.49;100969.16;112093;1215;94963;-77
2021/09/07 10:47:02;;;;;;;5.80;3.00;;;;;;;28.87;23.54;100963.58;112121;1215;94859;-76
2021/09/07 10:50:03;;;;;;;11.80;4.10;;;;;;;28.82;22.90;100964.27;111797;1211;136900;-78
2021/09/07 10:53:33;;;;;;;;;;;;;;;;;;;;;
2021/09/07 10:56:56;;;;;;;8.30;3.90;;;;;;;27.44;23.88;100955.90;111575;1213;137102;-77
2021/09/07 10:59:56;;;;;;;5.40;3.70;;;;;;;27.23;24.22;100948.50;111746;1212;94882;-76
2021/09/07 11:03:10;;;;;;;7.20;4.20;;;;;;;26.92;24.68;100948.64;111675;1219;137977;-75
2021/09/07 11:06:42;;;;;;;6.20;3.80;;;;;;;26.83;25.18;100955.84;112086;1207;108861;-77
2021/09/07 11:10:08;;;;;;;6.50;4.20;;;;;;;26.09;25.43;100955.36;112247;1212;107786;-76
2021/09/07 11:13:59;;;;;;;;;;;;;;;;;;;;;
2021/09/07 11:18:15;;;;;;;7.60;3.90;;;;;;;25.32;26.94;100952.26;112118;1209;95123;-76
2021/09/07 11:22:13;;;;;;;;;;;;;;;;;;;;;
2021/09/07 11:25:59;;;;;;;;;;;;;;;;;;;;;
2021/09/07 11:34:14;;;;;;;;;;;;;;;;;;;;;
2021/09/07 11:43:14;;;;;;;5.50;3.50;;;;;;;24.31;28.43;100963.20;110435;1222;94862;-76
2021/09/07 11:47:17;;;;;;;10.40;3.80;;;;;;;24.17;29.33;100965.75;110148;1225;109241;-75
2021/09/07 11:59:04;;;;;;;7.20;3.90;;;;;;;23.66;29.61;100965.94;111228;1222;639336;-76
2021/09/07 12:03:12;;;;;;;5.80;3.30;;;;;;;23.55;29.94;100964.08;112460;1206;136629;-75
2021/09/07 12:07:27;;;;;;;4.30;3.30;;;;;;;23.40;29.92;100959.15;112665;1206;93867;-77
2021/09/07 12:11:36;;;;;;;9.30;4.00;;;;;;;23.26;30.13;100953.13;112730;1206;106990;-76
2021/09/07 12:15:34;;;;;;;4.90;3.20;;;;;;;23.13;30.39;100941.63;112139;1212;136840;-76
2021/09/07 12:28:03;;;;;;;6.10;3.50;;;;;;;23.34;30.12;100931.56;112199;1203;136818;-77
2021/09/07 12:31:47;;;;;;;;;;;;;;;23.67;30.45;100928.20;112132;1208;108085;-76
2021/09/07 12:35:46;;;;;;;;;;;;;;;;;;;;;
2021/09/07 12:39:44;;;;;;;5.00;3.00;;;;;;;23.70;29.70;100925.86;111954;1206;137157;-75
2021/09/07 12:44:19;;;;;;;4.60;3.20;;;;;;;23.61;29.75;100925.11;111945;1211;94835;-76
2021/09/07 12:52:30;;;;;;;8.80;3.80;;;;;;;23.89;29.92;100923.67;110513;1217;137468;-77
2021/09/07 13:04:37;;;;;;;5.80;3.80;;;;;;;23.51;29.96;100919.09;110127;1225;137119;-75
2021/09/07 13:16:07;;;;;;;6.50;3.40;;;;;;;23.58;30.31;100909.73;111361;1221;634778;-76
2021/09/07 13:20:07;;;;;;;5.30;3.10;;;;;;;23.73;30.80;100911.92;112296;1210;94004;-76
2021/09/07 13:23:29;;;;;;;4.80;3.30;;;;;;;23.69;30.00;100909.77;112140;1212;136299;-76
2021/09/07 13:31:01;;;;;;;4.80;3.50;;;;;;;23.38;30.21;100899.34;112305;1203;104456;-77
2021/09/07 13:34:24;;;;;;;9.70;6.40;;;;;;;23.35;30.50;100895.45;111981;1215;137038;-77
2021/09/07 13:38:33;;;;;;;4.00;3.40;;;;;;;23.25;30.45;100894.11;112001;1215;94057;-75
2021/09/07 13:42:24;;;;;;;4.70;3.30;;;;;;;23.18;30.42;100894.77;111846;1212;136688;-77
2021/09/07 13:46:14;;;;;;;;;;;;;;;;;;;;;
2021/09/07 13:50:18;;;;;;;;;;;;;;;;;;;;;
2021/09/07 13:58:49;;;;;;;5.50;3.50;;;;;;;22.75;31.52;100891.93;111693;1221;95138;-76
2021/09/07 14:02:31;;;;;;;7.00;3.80;;;;;;;22.57;31.92;100892.48;111888;1216;95417;-77
2021/09/07 14:06:22;;;;;;;5.60;3.70;;;;;;;22.32;31.88;100894.31;111847;1211;136685;-77
2021/09/07 14:14:22;;;;;;;4.50;3.50;;;;;;;22.08;32.41;100889.43;111374;1223;106299;-75
2021/09/07 14:22:16;;;;;;;5.60;3.80;;;;;;;22.09;32.80;100885.81;110599;1229;96226;-76
2021/09/07 14:25:47;;;;;;;;;;;;;;;22.28;33.02;100886.05;110094;1232;136744;-77
2021/09/07 14:29:00;;;;;;;9.20;4.40;;;;;;;22.30;33.21;100892.53;109989;1229;108792;-75
2021/09/07 14:32:47;;;;;;;;;;;;;;;;;;;;;
2021/09/07 14:36:54;;;;;;;7.50;3.90;;;;;;;21.82;33.52;100895.68;110144;1229;137099;-74
2021/09/07 14:48:10;;;;;;;5.20;3.90;;;;;;;21.62;34.29;100892.95;111634;1218;634638;-77
2021/09/07 14:52:19;;;;;;;5.90;4.00;;;;;;;21.46;34.32;100896.36;112290;1205;93895;-77
2021/09/07 15:00:37;;;;;;;9.80;4.50;;;;;;;21.26;34.75;100884.77;112007;1211;107063;-76
2021/09/07 15:04:27;;;;;;;;;;;;;;;21.10;34.86;100882.24;111710;1212;107381;-76
2021/09/07 15:08:19;;;;;;;10.20;5.10;;;;;;;20.92;34.88;100871.99;111652;1220;123085;-77
2021/09/07 15:17:16;;;;;;;8.60;4.00;;;;;;;20.62;35.59;100873.92;111316;1217;94158;-76
2021/09/07 15:20:39;;;;;;;;;;;;;;;;;;;;;
2021/09/07 15:24:25;;;;;;;;;;;;;;;;;;;;;
2021/09/07 15:36:48;;;;;;;;;;;;;;;;;;;;;
2021/09/07 15:44:50;;;;;;;;;;;;;;;;;;;;;
2021/09/07 15:48:50;;;;;;;;;;;;;;;;;;;;;
2021/09/07 15:52:51;;;;;;;;;;;;;;;;;;;;;
2021/09/07 16:00:29;;;;;;;7.10;4.20;;;;;;;19.69;36.83;100890.96;110465;1223;110215;-78
2021/09/07 16:04:41;;;;;;;8.70;4.60;;;;;;;19.61;37.08;100887.55;110311;1229;136821;-77
2021/09/07 16:08:37;;;;;;;8.90;4.40;;;;;;;19.55;37.33;100886.30;110511;1226;108088;-77
2021/09/07 16:11:58;;;;;;;;;;;;;;;;;;;;;
2021/09/07 16:32:39;;;;;;;;;;;;;;;;;;;;;
2021/09/07 16:40:34;;;;;;;;;;;;;;;;;;;;;
2021/09/07 16:44:40;;;;;;;;;;;;;;;;;;;;;
2021/09/07 16:52:10;;;;;;;8.30;5.40;;;;;;;18.97;39.23;100879.61;111534;1220;634210;-76
2021/09/07 16:56:18;;;;;;;9.40;4.80;;;;;;;18.91;39.25;100882.65;112189;1205;93971;-76
2021/09/07 17:00:27;;;;;;;6.90;4.50;;;;;;;18.85;39.33;100881.04;111868;1217;136374;-76
2021/09/07 17:04:13;;;;;;;6.70;4.70;;;;;;;18.79;39.52;100884.89;112093;1204;136930;-76
2021/09/07 17:12:13;;;;;;;;;;;;;;;;;;;;;
2021/09/07 17:16:12;;;;;;;;;;;;;;;;;;;;;
2021/09/07 17:44:57;;;;;;;13.20;5.60;;;;;;;18.23;40.73;100889.02;110551;1229;111055;-77
2021/09/07 17:53:09;;;;;;;11.40;6.10;;;;;;;18.12;41.42;100887.27;110789;1226;137888;-77
2021/09/07 18:01:27;;;;;;;12.10;6.70;;;;;;;17.98;41.92;100892.09;112179;1212;94027;-77
2021/09/07 18:05:38;;;;;;;11.60;6.60;;;;;;;17.92;42.09;100891.86;111921;1209;136675;-77
2021/09/07 18:18:14;;;;;;;11.30;7.00;;;;;;;17.72;42.83;100903.29;110896;1218;136971;-77
2021/09/07 18:29:38;;;;;;;;;;;;;;;;;;;;;
2021/09/07 18:45:17;;;;;;;10.60;6.80;;;;;;;17.41;43.86;100912.52;111470;1215;636485;-76
2021/09/07 19:01:46;;;;;;;10.20;6.70;;;;;;;17.23;44.41;100919.61;111948;1217;136621;-77
2021/09/07 19:05:57;;;;;;;10.10;6.70;;;;;;;17.18;44.46;100926.17;111758;1212;137733;-76
2021/09/07 19:14:02;;;;;;;;;;;;;;;;;;;;;
2021/09/07 19:22:28;;;;;;;15.40;7.60;;;;;;;17.08;44.73;100925.45;110436;1230;107098;-76
2021/09/07 19:26:34;;;;;;;17.30;14.30;;;;;;;17.07;44.88;100924.61;110993;1223;657037;-76
2021/09/07 19:30:44;;;;;;;15.10;9.60;;;;;;;17.00;45.33;100916.52;112150;1211;137136;-76
2021/09/07 19:34:53;;;;;;;13.20;9.00;;;;;;;16.93;45.58;100914.23;112146;1209;93951;-76
2021/09/07 19:43:13;;;;;;;16.40;7.80;;;;;;;16.79;45.94;100919.09;111551;1219;137498;-75
2021/09/07 19:47:45;;;;;;;12.70;8.40;;;;;;;16.73;46.28;100914.85;111344;1222;108766;-76
2021/09/07 20:00:18;;;;;;;21.40;14.50;;;;;;;16.54;46.67;100913.95;109830;1229;107103;-77
2021/09/07 20:07:42;;;;;;;14.00;8.90;;;;;;;16.49;47.21;100912.38;111352;1219;638774;-77
2021/09/07 20:15:59;;;;;;;15.20;8.90;;;;;;;16.39;47.52;100910.96;111467;1219;136524;-76
2021/09/07 20:24:39;;;;;;;13.60;7.50;;;;;;;16.25;47.79;100921.57;110438;1228;108245;-77
2021/09/07 20:32:06;;;;;;;12.90;7.70;;;;;;;16.18;48.04;100916.98;109870;1225;137681;-76
2021/09/07 20:48:34;;;;;;;11.50;7.40;;;;;;;16.06;48.59;100921.90;112238;1206;94595;-77
2021/09/07 20:52:52;;;;;;;;;;;;;;;;;;;;;
2021/09/07 20:56:51;;;;;;;17.30;8.90;;;;;;;15.96;48.93;100916.19;111947;1216;136883;-76
2021/09/07 21:01:00;;;;;;;13.20;8.60;;;;;;;15.88;49.22;100914.63;111860;1211;107322;-76
2021/09/07 21:04:42;;;;;;;14.60;9.20;;;;;;;15.82;49.43;100916.30;111734;1216;136656;-77
2021/09/07 21:08:50;;;;;;;15.80;9.70;;;;;;;15.77;49.71;100919.11;111697;1212;137058;-77
2021/09/07 21:26:00;;;;;;;;;;;;;;;;;;;;;
2021/09/07 21:29:58;;;;;;;14.60;10.80;;;;;;;15.50;50.77;100926.73;112079;1208;107496;-77
2021/09/07 21:34:06;;;;;;;17.40;10.60;;;;;;;15.45;50.95;100931.33;111766;1211;137234;-77
2021/09/07 21:38:56;;;;;;;16.60;10.80;;;;;;;15.39;51.26;100934.17;111585;1214;106126;-77
2021/09/07 21:47:05;;;;;;;18.00;10.60;;;;;;;15.30;51.33;100933.86;110623;1220;137123;-76
2021/09/07 21:55:17;;;;;;;17.40;11.10;;;;;;;15.22;51.70;100931.90;111459;1220;634971;-76
2021/09/07 22:03:38;;;;;;;18.90;10.70;;;;;;;15.10;52.03;100937.81;111842;1221;93901;-77
2021/09/07 22:07:47;;;;;;;17.90;10.80;;;;;;;15.06;52.21;100933.05;111340;1223;108271;-76
2021/09/07 22:16:00;;;;;;;;;;;;;;;;;;;;;
2021/09/07 22:40:17;;;;;;;19.00;11.70;;;;;;;14.81;53.65;100916.36;112273;1212;94043;-77
2021/09/07 22:48:35;;;;;;;17.70;11.20;;;;;;;14.73;53.96;100917.75;111904;1209;137234;-77
2021/09/07 22:52:43;;;;;;;17.90;11.50;;;;;;;14.66;54.29;100917.83;111592;1221;106284;-77
2021/09/07 23:01:23;;;;;;;16.00;11.10;;;;;;;14.52;54.87;100916.62;110256;1229;137504;-78
2021/09/07 23:05:28;;;;;;;17.30;11.30;;;;;;;14.48;55.08;100921.64;109786;1236;93941;-76
2021/09/07 23:08:43;;;;;;;;;;;;;;;;;;;;;
2021/09/07 23:20:51;;;;;;;17.60;12.90;;;;;;;14.32;55.76;100917.32;112117;1211;136882;-76
2021/09/07 23:25:01;;;;;;;16.90;11.30;;;;;;;14.26;55.92;100916.48;112071;1215;93885;-75
2021/09/07 23:29:09;;;;;;;15.50;11.80;;;;;;;14.24;56.22;100913.80;111962;1211;107030;-76
2021/09/07 23:33:19;;;;;;;21.90;13.30;;;;;;;14.23;56.20;100918.38;111432;1218;137090;-76
2021/09/07 23:37:54;;;;;;;20.10;12.00;;;;;;;14.21;56.29;100919.67;111155;1224;108603;-76
2021/09/07 23:42:00;;;;;;;18.80;12.40;;;;;;;14.18;56.46;100916.96;110760;1225;94563;-77
2021/09/07 23:45:56;;;;;;;19.20;12.10;;;;;;;14.15;56.51;100916.02;110211;1232;137537;-76
